Time;durP1;ratioP1;P1;durP2;ratioP2;P2;SDS_P1;SDS_P2;PMS_P1;PMS_P2;Temp;Humidity;BMP_temperature;BMP_pressure;BME280_temperature;BME280_humidity;BME280_pressure;Samples;Min_cycle;Max_cycle;Signal;HPM_P1;HPM_P2
2020/12/16 00:03:43;;;;;;;15.43;9.60;;;;;;;;;;10551616;28;20230;-73
2020/12/16 00:08:45;;;;;;;17.00;10.47;;;;;;;;;;10547227;28;20230;-70
2020/12/16 00:13:47;;;;;;;16.30;9.40;;;;;;;;;;10552146;28;20219;-73
2020/12/16 00:18:48;;;;;;;16.20;10.00;;;;;;;;;;10543332;28;20200;-73
2020/12/16 00:23:50;;;;;;;15.13;9.20;;;;;;;;;;10559336;28;20220;-71
2020/12/16 00:28:52;;;;;;;17.37;10.43;;;;;;;;;;10539747;28;20200;-71
2020/12/16 00:33:53;;;;;;;14.77;9.83;;;;;;;;;;10549321;28;20223;-73
2020/12/16 00:38:57;;;;;;;17.03;9.30;;;;;;;;;;10556306;28;20191;-74
2020/12/16 00:43:58;;;;;;;16.87;9.00;;;;;;;;;;10557171;28;20211;-74
2020/12/16 00:49:00;;;;;;;16.50;9.23;;;;;;;;;;10557482;28;20204;-72
2020/12/16 00:54:02;;;;;;;14.10;8.50;;;;;;;;;;10551080;28;20267;-72
2020/12/16 00:59:04;;;;;;;14.67;8.00;;;;;;;;;;10558721;28;20199;-74
2020/12/16 01:04:06;;;;;;;14.43;8.20;;;;;;;;;;10554501;28;20235;-75
2020/12/16 01:09:08;;;;;;;17.50;9.13;;;;;;;;;;10549521;28;20227;-71
2020/12/16 01:14:10;;;;;;;14.23;8.23;;;;;;;;;;10552148;28;20223;-72
2020/12/16 01:19:11;;;;;;;15.90;8.73;;;;;;;;;;10537400;28;20206;-71
2020/12/16 01:24:14;;;;;;;14.73;8.43;;;;;;;;;;10552067;28;20215;-72
2020/12/16 01:29:16;;;;;;;16.43;9.73;;;;;;;;;;10553467;28;20217;-75
2020/12/16 01:34:19;;;;;;;19.40;10.27;;;;;;;;;;10554338;28;20302;-71
2020/12/16 01:39:21;;;;;;;15.47;9.73;;;;;;;;;;10560672;28;20632;-73
2020/12/16 01:44:27;;;;;;;16.43;9.10;;;;;;;;;;10556525;28;20587;-73
2020/12/16 01:49:29;;;;;;;16.07;9.23;;;;;;;;;;10543977;28;20192;-73
2020/12/16 01:54:32;;;;;;;18.47;10.20;;;;;;;;;;10554876;28;20219;-73
2020/12/16 01:59:35;;;;;;;15.93;9.53;;;;;;;;;;10570137;28;20260;-73
2020/12/16 02:04:38;;;;;;;17.53;10.17;;;;;;;;;;10548886;28;20268;-72
2020/12/16 02:09:41;;;;;;;19.10;11.10;;;;;;;;;;10554519;28;20511;-73
2020/12/16 02:14:43;;;;;;;21.47;12.50;;;;;;;;;;10550296;28;20196;-73
2020/12/16 02:19:47;;;;;;;18.43;11.37;;;;;;;;;;10550978;28;20204;-73
2020/12/16 02:25:00;;;;;;;16.40;9.97;;;;;;;;;;10544983;28;20667;-73
2020/12/16 02:30:01;;;;;;;16.87;9.70;;;;;;;;;;10550049;28;20226;-74
2020/12/16 02:35:03;;;;;;;19.90;11.30;;;;;;;;;;10550076;28;20203;-73
2020/12/16 02:40:05;;;;;;;18.30;10.37;;;;;;;;;;10549116;28;20701;-72
2020/12/16 02:45:07;;;;;;;17.17;10.13;;;;;;;;;;10545651;28;20261;-70
2020/12/16 02:50:09;;;;;;;14.97;9.07;;;;;;;;;;10549617;28;20218;-73
2020/12/16 02:55:11;;;;;;;16.90;9.73;;;;;;;;;;10547216;28;20214;-72
2020/12/16 03:00:13;;;;;;;16.90;10.60;;;;;;;;;;10553810;28;20219;-73
2020/12/16 03:05:14;;;;;;;17.37;9.87;;;;;;;;;;10541970;28;20230;-74
2020/12/16 03:10:17;;;;;;;19.47;11.00;;;;;;;;;;10546682;28;20227;-74
2020/12/16 03:15:18;;;;;;;19.87;11.90;;;;;;;;;;10553243;28;20200;-71
2020/12/16 03:20:19;;;;;;;20.60;11.80;;;;;;;;;;10547061;28;20686;-74
2020/12/16 03:25:22;;;;;;;25.80;13.87;;;;;;;;;;10558133;28;20611;-73
2020/12/16 03:30:23;;;;;;;28.07;15.20;;;;;;;;;;10537047;28;20284;-74
2020/12/16 03:35:25;;;;;;;39.17;17.60;;;;;;;;;;10567247;28;20294;-74
2020/12/16 03:40:27;;;;;;;28.00;14.80;;;;;;;;;;10559234;28;20218;-73
2020/12/16 03:45:28;;;;;;;27.77;14.00;;;;;;;;;;10552707;28;20216;-73
2020/12/16 03:50:30;;;;;;;24.53;13.40;;;;;;;;;;10554320;28;20594;-74
2020/12/16 03:55:32;;;;;;;25.63;13.90;;;;;;;;;;10554284;28;20203;-74
2020/12/16 04:00:34;;;;;;;23.07;12.00;;;;;;;;;;10553250;28;20702;-72
2020/12/16 04:05:35;;;;;;;26.07;13.47;;;;;;;;;;10549274;28;20210;-71
2020/12/16 04:10:37;;;;;;;22.80;11.67;;;;;;;;;;10551539;28;20710;-74
2020/12/16 04:15:39;;;;;;;23.00;12.43;;;;;;;;;;10556486;28;20199;-74
2020/12/16 04:20:40;;;;;;;22.90;12.60;;;;;;;;;;10547831;28;20718;-73
2020/12/16 04:25:43;;;;;;;21.87;12.00;;;;;;;;;;10558257;28;20217;-74
2020/12/16 04:30:44;;;;;;;22.17;12.23;;;;;;;;;;10554221;28;20227;-73
2020/12/16 04:35:46;;;;;;;20.10;11.30;;;;;;;;;;10556901;28;20230;-73
2020/12/16 04:40:48;;;;;;;22.10;11.73;;;;;;;;;;10564716;28;20366;-74
2020/12/16 04:45:50;;;;;;;18.07;10.13;;;;;;;;;;10561600;28;20553;-74
2020/12/16 04:50:52;;;;;;;18.47;9.97;;;;;;;;;;10565821;28;20242;-74
2020/12/16 04:55:57;;;;;;;18.83;10.63;;;;;;;;;;10554838;28;20341;-74
2020/12/16 05:00:59;;;;;;;18.50;10.20;;;;;;;;;;10559292;28;20223;-74
2020/12/16 05:06:00;;;;;;;18.77;10.10;;;;;;;;;;10555831;28;20223;-75
2020/12/16 05:11:04;;;;;;;22.60;10.80;;;;;;;;;;10557630;28;20223;-74
2020/12/16 05:16:06;;;;;;;22.90;11.23;;;;;;;;;;10555450;28;20199;-74
2020/12/16 05:21:08;;;;;;;20.03;10.60;;;;;;;;;;10553277;28;20248;-74
2020/12/16 05:26:10;;;;;;;18.03;9.87;;;;;;;;;;10564087;28;20222;-73
2020/12/16 05:31:12;;;;;;;16.73;9.13;;;;;;;;;;10549509;28;20218;-71
2020/12/16 05:36:26;;;;;;;21.93;9.17;;;;;;;;;;10563993;28;20206;-74
2020/12/16 05:41:30;;;;;;;16.97;9.83;;;;;;;;;;10556598;28;20238;-74
2020/12/16 05:46:31;;;;;;;18.73;9.40;;;;;;;;;;10559787;28;20586;-73
2020/12/16 05:51:33;;;;;;;14.47;8.37;;;;;;;;;;10559652;28;20871;-72
2020/12/16 05:56:35;;;;;;;16.20;8.97;;;;;;;;;;10563504;28;20206;-75
2020/12/16 06:01:37;;;;;;;18.47;9.40;;;;;;;;;;10562191;28;20279;-74
2020/12/16 06:06:39;;;;;;;16.20;8.40;;;;;;;;;;10557897;28;20706;-71
2020/12/16 06:11:44;;;;;;;16.87;9.50;;;;;;;;;;10551641;28;20226;-73
2020/12/16 06:16:46;;;;;;;17.50;9.07;;;;;;;;;;10562168;28;20621;-75
2020/12/16 06:21:54;;;;;;;15.57;9.13;;;;;;;;;;10557055;28;20223;-73
2020/12/16 06:27:03;;;;;;;16.90;8.97;;;;;;;;;;10553743;28;20223;-74
2020/12/16 06:32:07;;;;;;;19.60;9.87;;;;;;;;;;10548601;28;20647;-74
2020/12/16 06:37:14;;;;;;;18.80;9.90;;;;;;;;;;10551037;28;20199;-74
2020/12/16 06:42:32;;;;;;;18.50;10.00;;;;;;;;;;10553301;28;20233;-72
2020/12/16 06:47:33;;;;;;;17.00;9.27;;;;;;;;;;10542873;28;20719;-71
2020/12/16 06:52:35;;;;;;;18.70;9.87;;;;;;;;;;10543745;28;20703;-72
2020/12/16 06:57:47;;;;;;;20.10;10.67;;;;;;;;;;10543817;28;20207;-73
2020/12/16 07:02:48;;;;;;;17.87;9.87;;;;;;;;;;10550699;28;20218;-73
2020/12/16 07:07:55;;;;;;;14.43;8.40;;;;;;;;;;10546088;28;20226;-71
2020/12/16 07:13:09;;;;;;;16.13;9.00;;;;;;;;;;10546982;28;20707;-75
2020/12/16 07:18:21;;;;;;;19.13;9.93;;;;;;;;;;10530212;28;20192;-73
2020/12/16 07:23:23;;;;;;;17.27;8.80;;;;;;;;;;10547110;28;20222;-73
2020/12/16 07:28:26;;;;;;;17.27;9.13;;;;;;;;;;10559470;28;20211;-72
2020/12/16 07:33:28;;;;;;;16.90;8.97;;;;;;;;;;10550917;28;20767;-72
2020/12/16 07:38:30;;;;;;;15.00;8.73;;;;;;;;;;10553189;28;20272;-73
2020/12/16 07:43:32;;;;;;;16.73;9.27;;;;;;;;;;10550657;28;20226;-74
2020/12/16 07:48:35;;;;;;;17.23;9.20;;;;;;;;;;10545445;28;20224;-73
2020/12/16 07:53:44;;;;;;;16.57;9.63;;;;;;;;;;10565574;28;20264;-74
2020/12/16 07:58:47;;;;;;;17.90;10.10;;;;;;;;;;10563070;28;20230;-73
2020/12/16 08:03:48;;;;;;;16.07;8.50;;;;;;;;;;10570184;28;20215;-72
2020/12/16 08:08:51;;;;;;;17.30;9.00;;;;;;;;;;10557371;28;20969;-72
2020/12/16 08:14:01;;;;;;;17.33;9.23;;;;;;;;;;10568373;28;20575;-72
2020/12/16 08:19:04;;;;;;;17.70;8.93;;;;;;;;;;10566077;28;20203;-72
2020/12/16 08:24:05;;;;;;;15.17;8.63;;;;;;;;;;10552950;28;21003;-71
2020/12/16 08:29:08;;;;;;;15.60;8.30;;;;;;;;;;10564536;28;20220;-73
2020/12/16 08:34:12;;;;;;;15.03;8.23;;;;;;;;;;10556856;28;20230;-72
2020/12/16 08:39:14;;;;;;;14.10;8.20;;;;;;;;;;10556201;28;20195;-74
2020/12/16 08:44:21;;;;;;;15.37;8.20;;;;;;;;;;10562251;28;20219;-73
2020/12/16 08:49:23;;;;;;;15.37;7.90;;;;;;;;;;10562895;28;20894;-74
2020/12/16 08:54:25;;;;;;;12.63;7.00;;;;;;;;;;10558077;28;20230;-73
2020/12/16 08:59:28;;;;;;;13.30;7.33;;;;;;;;;;10552707;28;20679;-73
2020/12/16 09:04:31;;;;;;;12.80;7.40;;;;;;;;;;10549238;28;20666;-73
2020/12/16 09:09:33;;;;;;;11.97;7.70;;;;;;;;;;10550069;28;20258;-74
2020/12/16 09:14:35;;;;;;;10.67;7.57;;;;;;;;;;10553058;28;20231;-73
2020/12/16 09:19:37;;;;;;;10.60;7.13;;;;;;;;;;10552870;28;20230;-73
2020/12/16 09:24:38;;;;;;;13.23;7.90;;;;;;;;;;10565135;28;20575;-73
2020/12/16 09:29:44;;;;;;;11.95;7.78;;;;;;;;;;10550600;28;20230;-74
2020/12/16 09:34:46;;;;;;;13.40;7.82;;;;;;;;;;10550244;28;20203;-74
2020/12/16 09:39:48;;;;;;;12.10;8.32;;;;;;;;;;10557534;28;20206;-73
2020/12/16 09:44:51;;;;;;;10.57;6.82;;;;;;;;;;10556153;28;20200;-72
2020/12/16 09:49:57;;;;;;;12.07;7.70;;;;;;;;;;10540740;28;20226;-75
2020/12/16 09:55:12;;;;;;;12.17;7.30;;;;;;;;;;10550747;28;20837;-74
2020/12/16 10:00:14;;;;;;;12.47;7.67;;;;;;;;;;10549580;28;20304;-74
2020/12/16 10:05:16;;;;;;;13.90;8.33;;;;;;;;;;10566759;28;20206;-73
2020/12/16 10:10:17;;;;;;;11.83;7.40;;;;;;;;;;10550220;28;20226;-74
2020/12/16 10:15:20;;;;;;;12.13;7.63;;;;;;;;;;10547837;28;20210;-73
2020/12/16 10:20:22;;;;;;;12.70;7.67;;;;;;;;;;10546786;28;20219;-73
2020/12/16 10:25:23;;;;;;;10.20;7.00;;;;;;;;;;10538720;28;20212;-73
2020/12/16 10:30:26;;;;;;;11.77;7.53;;;;;;;;;;10554491;28;20225;-72
2020/12/16 10:35:27;;;;;;;14.07;8.17;;;;;;;;;;10558076;28;20305;-73
2020/12/16 10:40:31;;;;;;;15.27;8.27;;;;;;;;;;10552389;28;20215;-73
2020/12/16 10:45:34;;;;;;;15.00;9.10;;;;;;;;;;10559192;28;20305;-72
2020/12/16 10:50:35;;;;;;;14.73;8.97;;;;;;;;;;10544200;28;20222;-73
2020/12/16 10:55:36;;;;;;;13.73;8.03;;;;;;;;;;10555032;28;20657;-73
2020/12/16 11:00:39;;;;;;;18.27;8.33;;;;;;;;;;10539344;28;20226;-72
2020/12/16 11:05:40;;;;;;;17.60;8.80;;;;;;;;;;10545817;28;20220;-73
2020/12/16 11:10:48;;;;;;;13.73;8.33;;;;;;;;;;10545153;28;20242;-72
2020/12/16 11:15:50;;;;;;;13.40;8.23;;;;;;;;;;10547235;28;20206;-72
2020/12/16 11:20:52;;;;;;;14.00;8.50;;;;;;;;;;10551822;28;20233;-73
2020/12/16 11:25:53;;;;;;;17.37;8.67;;;;;;;;;;10554013;28;20216;-74
2020/12/16 11:30:56;;;;;;;15.97;9.20;;;;;;;;;;10560655;28;20310;-74
2020/12/16 11:35:58;;;;;;;15.70;8.87;;;;;;;;;;10546751;28;20246;-72
2020/12/16 11:41:00;;;;;;;15.20;9.03;;;;;;;;;;10553304;28;20223;-72
2020/12/16 11:46:03;;;;;;;18.70;8.97;;;;;;;;;;10548323;28;20219;-73
2020/12/16 11:51:04;;;;;;;15.30;9.10;;;;;;;;;;10551656;28;20222;-73
2020/12/16 11:56:05;;;;;;;19.27;9.67;;;;;;;;;;10544746;28;20203;-73
2020/12/16 12:01:10;;;;;;;16.30;9.60;;;;;;;;;;10557281;28;20223;-72
2020/12/16 12:06:11;;;;;;;19.13;10.80;;;;;;;;;;10552765;28;20215;-72
2020/12/16 12:11:14;;;;;;;16.90;9.50;;;;;;;;;;10548197;28;20234;-74
2020/12/16 12:16:17;;;;;;;16.17;9.57;;;;;;;;;;10556886;28;20249;-73
2020/12/16 12:21:18;;;;;;;17.07;10.43;;;;;;;;;;10547542;28;20215;-72
2020/12/16 12:26:20;;;;;;;19.43;10.43;;;;;;;;;;10548430;28;20229;-73
2020/12/16 12:31:22;;;;;;;15.97;9.83;;;;;;;;;;10548212;28;20264;-73
2020/12/16 12:36:23;;;;;;;16.80;9.90;;;;;;;;;;10552521;28;20281;-73
2020/12/16 12:41:26;;;;;;;15.03;8.80;;;;;;;;;;10559662;28;20310;-73
2020/12/16 12:46:29;;;;;;;13.53;8.97;;;;;;;;;;10561910;28;20210;-73
2020/12/16 12:51:30;;;;;;;13.83;8.70;;;;;;;;;;10557474;28;20302;-72
2020/12/16 12:56:32;;;;;;;12.67;8.10;;;;;;;;;;10561906;28;20272;-73
2020/12/16 13:01:34;;;;;;;13.70;8.97;;;;;;;;;;10563005;28;20234;-73
2020/12/16 13:06:37;;;;;;;14.47;8.70;;;;;;;;;;10561983;28;20219;-73
2020/12/16 13:11:39;;;;;;;12.73;8.37;;;;;;;;;;10551039;28;20219;-73
2020/12/16 13:16:43;;;;;;;16.73;10.70;;;;;;;;;;10556853;28;20211;-73
2020/12/16 13:21:48;;;;;;;13.00;8.30;;;;;;;;;;10556743;28;20682;-73
2020/12/16 13:26:50;;;;;;;14.90;8.57;;;;;;;;;;10548938;28;20219;-73
2020/12/16 13:31:52;;;;;;;15.53;8.83;;;;;;;;;;10551559;28;20241;-73
2020/12/16 13:36:54;;;;;;;14.30;8.90;;;;;;;;;;10553611;28;20198;-73
2020/12/16 13:41:55;;;;;;;14.33;9.20;;;;;;;;;;10559931;28;20215;-73
2020/12/16 13:46:57;;;;;;;15.10;9.10;;;;;;;;;;10549432;28;20220;-74
2020/12/16 13:52:00;;;;;;;15.87;8.93;;;;;;;;;;10556530;28;20273;-73
2020/12/16 13:57:02;;;;;;;15.53;8.90;;;;;;;;;;10562299;28;20268;-74
2020/12/16 14:02:05;;;;;;;14.00;8.77;;;;;;;;;;10556307;28;20688;-76
2020/12/16 14:07:07;;;;;;;15.37;9.23;;;;;;;;;;10549135;28;20559;-73
2020/12/16 14:12:08;;;;;;;15.37;9.43;;;;;;;;;;10553447;28;20231;-75
2020/12/16 14:17:11;;;;;;;13.60;8.43;;;;;;;;;;10556076;28;20644;-73
2020/12/16 14:22:14;;;;;;;12.50;7.93;;;;;;;;;;10559787;28;20219;-74
2020/12/16 14:27:15;;;;;;;13.57;8.20;;;;;;;;;;10542182;28;20223;-73
2020/12/16 14:32:21;;;;;;;12.67;8.13;;;;;;;;;;10557471;28;20309;-73
2020/12/16 14:37:23;;;;;;;12.23;8.13;;;;;;;;;;10544747;28;20635;-74
2020/12/16 14:42:24;;;;;;;14.43;8.13;;;;;;;;;;10557767;28;21070;-73
2020/12/16 14:47:27;;;;;;;11.30;7.33;;;;;;;;;;10549493;28;20307;-73
2020/12/16 14:52:31;;;;;;;12.83;8.03;;;;;;;;;;10560208;28;20801;-74
2020/12/16 14:57:32;;;;;;;34.90;18.27;;;;;;;;;;10558873;28;20195;-73
2020/12/16 15:02:35;;;;;;;14.50;8.20;;;;;;;;;;10552986;28;20225;-73
2020/12/16 15:07:36;;;;;;;15.57;8.87;;;;;;;;;;10555524;28;20983;-72
2020/12/16 15:12:39;;;;;;;16.33;8.70;;;;;;;;;;10565527;28;20287;-73
2020/12/16 15:17:42;;;;;;;14.03;8.97;;;;;;;;;;10556984;28;20305;-72
2020/12/16 15:22:44;;;;;;;14.20;9.07;;;;;;;;;;10550228;28;20228;-73
2020/12/16 15:27:45;;;;;;;16.73;10.10;;;;;;;;;;10553115;28;20261;-72
2020/12/16 15:32:48;;;;;;;15.60;9.03;;;;;;;;;;10546799;28;20639;-74
2020/12/16 15:37:49;;;;;;;17.80;10.60;;;;;;;;;;10551668;28;20790;-73
2020/12/16 15:42:51;;;;;;;16.07;9.27;;;;;;;;;;10544483;28;20225;-73
2020/12/16 15:47:53;;;;;;;15.93;9.90;;;;;;;;;;10551735;28;20221;-73
2020/12/16 15:52:54;;;;;;;15.83;10.00;;;;;;;;;;10556805;28;20215;-73
2020/12/16 15:57:57;;;;;;;17.33;10.90;;;;;;;;;;10550485;28;20239;-72
2020/12/16 16:02:59;;;;;;;16.93;10.70;;;;;;;;;;10549217;28;20215;-73
2020/12/16 16:08:02;;;;;;;15.70;10.03;;;;;;;;;;10562414;28;20210;-71
2020/12/16 16:13:03;;;;;;;16.73;10.27;;;;;;;;;;10551376;28;20726;-71
2020/12/16 16:18:05;;;;;;;17.30;10.73;;;;;;;;;;10554316;28;20195;-71
2020/12/16 16:23:07;;;;;;;15.93;9.97;;;;;;;;;;10550814;28;20674;-71
2020/12/16 16:28:09;;;;;;;21.13;11.77;;;;;;;;;;10562072;28;20227;-70
2020/12/16 16:33:11;;;;;;;17.97;10.40;;;;;;;;;;10562857;28;20535;-72
2020/12/16 16:38:13;;;;;;;17.80;10.40;;;;;;;;;;10561917;28;20201;-72
2020/12/16 16:43:14;;;;;;;17.77;11.77;;;;;;;;;;10565780;28;20215;-72
2020/12/16 16:48:18;;;;;;;19.40;11.13;;;;;;;;;;10564982;28;20211;-73
2020/12/16 16:53:19;;;;;;;17.33;10.80;;;;;;;;;;10553293;28;20222;-73
2020/12/16 16:58:21;;;;;;;22.20;9.67;;;;;;;;;;10558120;28;20320;-73
2020/12/16 17:03:23;;;;;;;39.43;15.67;;;;;;;;;;10556867;28;20218;-75
2020/12/16 17:08:24;;;;;;;20.83;12.83;;;;;;;;;;10556119;28;20568;-71
2020/12/16 17:13:26;;;;;;;20.17;12.10;;;;;;;;;;10559402;28;20211;-73
2020/12/16 17:18:28;;;;;;;20.67;10.17;;;;;;;;;;10560153;28;20699;-73
2020/12/16 17:23:30;;;;;;;18.63;11.13;;;;;;;;;;10543935;28;20215;-74
2020/12/16 17:28:33;;;;;;;38.10;13.27;;;;;;;;;;10551204;28;20210;-73
2020/12/16 17:33:35;;;;;;;22.13;8.70;;;;;;;;;;10565918;28;20708;-74
2020/12/16 17:38:37;;;;;;;10.47;5.20;;;;;;;;;;10566517;28;20202;-74
2020/12/16 17:43:38;;;;;;;36.03;10.10;;;;;;;;;;10556862;28;20226;-73
2020/12/16 17:48:41;;;;;;;20.33;10.27;;;;;;;;;;10564883;28;20563;-74
2020/12/16 17:53:42;;;;;;;20.60;9.23;;;;;;;;;;10560267;28;20234;-73
2020/12/16 17:58:44;;;;;;;21.53;9.87;;;;;;;;;;10558310;28;20308;-73
2020/12/16 18:03:46;;;;;;;19.67;11.30;;;;;;;;;;10552035;28;20223;-71
2020/12/16 18:08:47;;;;;;;19.83;10.00;;;;;;;;;;10559112;28;20215;-73
2020/12/16 18:13:49;;;;;;;18.20;9.97;;;;;;;;;;10557107;28;20219;-72
2020/12/16 18:18:53;;;;;;;19.43;10.40;;;;;;;;;;10562220;28;20294;-70
2020/12/16 18:23:54;;;;;;;25.23;9.70;;;;;;;;;;10563822;28;20617;-73
2020/12/16 18:28:56;;;;;;;16.67;9.93;;;;;;;;;;10557964;28;20294;-72
2020/12/16 18:34:00;;;;;;;19.60;9.63;;;;;;;;;;10553968;28;20276;-73
2020/12/16 18:39:01;;;;;;;21.93;9.93;;;;;;;;;;10555267;28;20210;-72
2020/12/16 18:44:04;;;;;;;20.90;10.27;;;;;;;;;;10555680;28;20231;-72
2020/12/16 18:49:06;;;;;;;21.93;9.97;;;;;;;;;;10561975;28;20639;-73
2020/12/16 18:54:08;;;;;;;19.70;10.50;;;;;;;;;;10546642;28;20215;-73
2020/12/16 18:59:09;;;;;;;17.97;9.30;;;;;;;;;;10557868;28;20289;-72
2020/12/16 19:04:12;;;;;;;18.70;9.50;;;;;;;;;;10555708;28;20219;-72
2020/12/16 19:09:13;;;;;;;22.63;9.63;;;;;;;;;;10560235;28;20440;-73
2020/12/16 19:14:15;;;;;;;16.07;8.13;;;;;;;;;;10553703;28;20234;-74
2020/12/16 19:19:17;;;;;;;13.93;8.50;;;;;;;;;;10560713;28;20214;-74
2020/12/16 19:24:19;;;;;;;19.00;8.53;;;;;;;;;;10558027;28;20230;-75
2020/12/16 19:29:21;;;;;;;16.23;8.23;;;;;;;;;;10554124;28;20234;-74
2020/12/16 19:34:24;;;;;;;15.30;9.00;;;;;;;;;;10557008;28;20222;-74
2020/12/16 19:39:26;;;;;;;18.10;8.67;;;;;;;;;;10550942;28;20709;-75
2020/12/16 19:44:27;;;;;;;21.50;8.43;;;;;;;;;;10562381;28;20210;-73
2020/12/16 19:49:30;;;;;;;15.47;9.13;;;;;;;;;;10556696;28;20597;-74
2020/12/16 19:54:32;;;;;;;17.17;9.20;;;;;;;;;;10557427;28;20253;-74
2020/12/16 19:59:34;;;;;;;17.17;5.63;;;;;;;;;;10551455;28;20305;-72
2020/12/16 20:04:36;;;;;;;16.13;8.63;;;;;;;;;;10550678;28;20226;-73
2020/12/16 20:09:38;;;;;;;16.63;9.27;;;;;;;;;;10546377;28;20223;-73
2020/12/16 20:14:39;;;;;;;14.77;8.10;;;;;;;;;;10554133;28;20228;-74
2020/12/16 20:19:42;;;;;;;17.07;9.77;;;;;;;;;;10543898;28;20202;-72
2020/12/16 20:24:43;;;;;;;20.70;12.40;;;;;;;;;;10555293;28;20219;-72
2020/12/16 20:29:45;;;;;;;19.80;10.30;;;;;;;;;;10544333;28;20282;-73
2020/12/16 20:34:47;;;;;;;19.00;10.67;;;;;;;;;;10549640;28;20203;-75
2020/12/16 20:39:48;;;;;;;17.80;9.23;;;;;;;;;;10549676;28;20211;-72
2020/12/16 20:44:50;;;;;;;25.43;10.47;;;;;;;;;;10550628;28;20676;-75
2020/12/16 20:49:52;;;;;;;20.03;10.03;;;;;;;;;;10542161;28;20219;-74
2020/12/16 20:54:54;;;;;;;17.53;9.33;;;;;;;;;;10536783;28;20214;-74
2020/12/16 20:59:56;;;;;;;26.27;10.70;;;;;;;;;;10554951;28;20202;-73
2020/12/16 21:04:58;;;;;;;16.90;9.53;;;;;;;;;;10559159;28;20681;-75
2020/12/16 21:10:00;;;;;;;23.47;8.77;;;;;;;;;;10552037;28;20295;-76
2020/12/16 21:15:01;;;;;;;25.30;9.97;;;;;;;;;;10556771;28;20206;-74
2020/12/16 21:20:04;;;;;;;16.83;9.27;;;;;;;;;;10551844;28;20199;-72
2020/12/16 21:25:06;;;;;;;18.40;9.83;;;;;;;;;;10563404;28;20562;-74
2020/12/16 21:30:07;;;;;;;18.43;9.33;;;;;;;;;;10553976;28;20220;-74
2020/12/16 21:35:11;;;;;;;18.17;9.10;;;;;;;;;;10558136;28;20203;-72
2020/12/16 21:40:12;;;;;;;15.73;9.40;;;;;;;;;;10563037;28;20207;-74
2020/12/16 21:45:14;;;;;;;16.70;9.70;;;;;;;;;;10558712;28;20195;-74
2020/12/16 21:50:18;;;;;;;16.50;8.73;;;;;;;;;;10559495;28;20727;-73
2020/12/16 21:55:19;;;;;;;21.10;8.03;;;;;;;;;;10555547;28;20210;-71
2020/12/16 22:00:21;;;;;;;16.17;8.70;;;;;;;;;;10569074;28;20219;-71
2020/12/16 22:05:23;;;;;;;16.90;9.17;;;;;;;;;;10550873;28;20634;-73
2020/12/16 22:10:25;;;;;;;16.80;8.93;;;;;;;;;;10565666;28;20658;-72
2020/12/16 22:15:26;;;;;;;15.53;8.33;;;;;;;;;;10554925;28;20196;-71
2020/12/16 22:20:29;;;;;;;15.60;8.63;;;;;;;;;;10558445;28;20223;-70
2020/12/16 22:25:30;;;;;;;15.63;7.37;;;;;;;;;;10557403;28;20196;-73
2020/12/16 22:30:32;;;;;;;15.87;8.37;;;;;;;;;;10549878;28;20558;-73
2020/12/16 22:35:35;;;;;;;13.13;7.50;;;;;;;;;;10548313;28;21175;-73
2020/12/16 22:40:36;;;;;;;14.40;7.63;;;;;;;;;;10550708;28;20230;-73
2020/12/16 22:45:38;;;;;;;17.83;6.43;;;;;;;;;;10552618;28;20203;-72
2020/12/16 22:50:40;;;;;;;14.13;5.53;;;;;;;;;;10561713;28;20606;-71
2020/12/16 22:55:41;;;;;;;15.17;7.93;;;;;;;;;;10555112;28;20659;-72
2020/12/16 23:00:43;;;;;;;16.43;8.27;;;;;;;;;;10555000;28;20215;-72
2020/12/16 23:05:45;;;;;;;13.90;6.80;;;;;;;;;;10545257;28;20507;-71
2020/12/16 23:10:48;;;;;;;15.60;8.10;;;;;;;;;;10548042;28;20222;-72
2020/12/16 23:15:50;;;;;;;16.90;7.90;;;;;;;;;;10551316;28;20281;-73
2020/12/16 23:20:52;;;;;;;15.63;9.07;;;;;;;;;;10558070;28;20211;-72
2020/12/16 23:25:53;;;;;;;14.53;8.03;;;;;;;;;;10550015;28;20217;-72
2020/12/16 23:30:55;;;;;;;12.57;6.17;;;;;;;;;;10549377;28;20235;-71
2020/12/16 23:35:58;;;;;;;13.67;6.83;;;;;;;;;;10558781;28;20263;-72
2020/12/16 23:41:01;;;;;;;15.27;6.90;;;;;;;;;;10546771;28;20210;-71
2020/12/16 23:46:02;;;;;;;14.77;6.13;;;;;;;;;;10548037;28;20265;-71
2020/12/16 23:51:06;;;;;;;15.63;8.63;;;;;;;;;;10554005;28;20305;-73
2020/12/16 23:56:13;;;;;;;14.37;8.30;;;;;;;;;;10547940;28;20207;-75
